HST,Max TemperatureF,Mean TemperatureF,Min TemperatureF,Max Dew PointF,MeanDew PointF,Min DewpointF,Max Humidity, Mean Humidity, Min Humidity, Max Sea Level PressureIn, Mean Sea Level PressureIn, Min Sea Level PressureIn, Max VisibilityMiles, Mean VisibilityMiles, Min VisibilityMiles, Max Wind SpeedMPH, Mean Wind SpeedMPH, Max Gust SpeedMPH,PrecipitationIn, CloudCover, Events, WindDirDegrees
2014-3-1,82,72,61,70,65,57,97,81,64,29.97,29.93,29.88,10,10,10,13,6,17,T,3,Rain,283
2014-3-2,75,70,65,71,66,61,100,87,73,29.98,29.92,29.87,10,9,2,14,5,20,0.31,7,Rain,240
2014-3-3,75,71,66,69,66,62,97,85,73,29.94,29.89,29.80,10,10,4,25,7,40,0.06,8,Rain,359
2014-3-4,77,72,67,68,65,62,100,82,64,30.04,29.96,29.89,10,10,10,14,4,19,T,7,,319
2014-3-5,79,72,64,68,63,56,97,80,62,30.07,30.01,29.96,10,10,3,12,6,14,0.09,6,Rain,238
2014-3-6,87,74,60,71,65,56,100,75,50,30.02,29.96,29.87,10,10,9,23,7,29,0.00,2,,179
2014-3-7,83,75,66,71,67,61,93,75,56,30.01,29.97,29.93,10,10,6,17,6,21,0.03,6,Rain,277
2014-3-8,80,75,70,70,68,65,93,78,62,30.10,30.03,29.96,10,9,2,16,7,20,T,8,Rain,6
2014-3-9,78,73,68,72,70,68,100,91,82,30.10,30.05,29.99,10,7,2,14,5,17,1.37,8,Rain,340
2014-3-10,80,74,68,72,69,67,100,87,74,30.08,30.03,29.95,10,6,1,12,6,14,2.02,8,Rain,276
2014-3-11,80,72,64,67,65,62,100,79,58,30.04,30.01,29.94,10,10,9,16,7,20,0.00,5,Rain,335
2014-3-12,81,72,62,69,65,57,90,79,67,30.09,30.02,29.97,10,10,3,17,10,22,T,4,Rain,342
2014-3-13,80,73,66,71,67,65,100,87,74,30.11,30.06,30.01,10,9,2,15,7,19,0.10,5,Rain,301
2014-3-14,82,74,66,70,68,65,100,83,65,30.09,30.05,29.99,10,9,2,14,6,19,0.01,5,Rain,113
2014-3-15,81,74,66,71,68,66,100,85,69,30.09,30.04,30.00,10,8,2,18,8,25,0.55,7,Rain,344
2014-3-16,76,71,66,67,63,61,93,77,60,30.13,30.06,30.02,10,9,4,23,17,29,0.15,7,Rain,347
2014-3-17,74,71,67,67,65,63,93,83,73,30.08,30.02,29.98,10,10,3,16,8,19,T,8,Rain,335
2014-3-18,78,73,67,64,63,62,81,70,58,30.02,29.97,29.90,10,10,10,12,8,17,0.00,7,,342
2014-3-19,78,70,62,66,63,58,90,75,60,30.01,29.95,29.91,10,10,10,12,6,15,T,6,Rain,303
2014-3-20,79,73,67,71,68,64,100,85,69,30.06,30.01,29.96,10,6,2,13,5,17,0.70,8,Rain,351
2014-3-21,80,73,66,71,68,64,100,90,79,30.07,30.02,29.97,10,7,2,16,7,20,1.70,7,Rain,307
2014-3-22,80,73,66,71,68,66,100,87,74,30.09,30.05,30.01,10,10,5,14,6,18,0.13,6,Rain,343
2014-3-23,79,73,67,72,68,66,100,87,74,30.14,30.07,30.01,10,7,1,24,8,28,1.22,8,Rain,221
2014-3-24,80,74,68,72,69,65,100,86,71,30.17,30.12,30.07,10,9,2,18,9,23,0.30,6,Rain,14
2014-3-25,79,71,63,72,69,61,100,84,67,30.17,30.12,30.05,10,8,2,18,8,21,0.04,6,Rain,257
2014-3-26,80,73,65,73,70,64,100,87,74,30.16,30.11,30.05,10,9,2,15,6,18,0.24,5,Rain,208
2014-3-27,83,74,65,70,67,62,100,82,63,30.13,30.08,30.01,10,10,10,21,9,25,T,1,,183
2014-3-28,82,73,64,69,65,59,93,87,81,30.10,30.05,29.99,10,8,1,17,7,21,0.00,6,Rain,195
2014-3-29,81,73,65,68,66,64,93,79,64,30.07,30.01,29.97,10,10,7,20,8,26,0.04,7,Rain,197
2014-3-30,81,73,64,70,67,63,100,81,62,30.05,30.01,29.96,10,10,7,15,6,20,0.03,5,Rain,206
2014-3-31,75,70,65,72,69,65,100,92,84,30.07,30.02,29.96,10,6,0,12,5,13,2.05,8,Fog-Rain,241